Saint Louis, MO

11:37 PM CST on February 11, 2016 (GMT -0600)
Soulard | | Change Station
CLOSE
Current Station
Personal Weather Station
Location: Saint Louis, MO
Elevation: 535 ft
Nearby Weather Stations

Elev 535 ft 38.61 °N, 90.21 °W | Updated 14 minutes ago

Overcast
Overcast
27.1 °F
Feels Like 27 °F
N
0.0
Wind Variable Wind from ENE

Today
High -- | Low -- °F
--% Chance of Precip.
Yesterday
High -- | Low -- °F
Precip. -- in
Pressure 30.31 in
Visibility 10.0 miles
Clouds Overcast 7500 ft
Windchill 27 °F
Dew Point 14 °F
Humidity 56%
Rainfall 0.04 in
Snow Depth Not available.
6:56 AM 5:33 PM
Waxing Crescent, 17% visible
METAR KSTL 120451Z 12004KT 10SM OVC075 M02/M11 A3027 RMK AO2 SLP264 T10171106
Pressure 30.31 in
Visibility 10.0 miles
Clouds Overcast 7500 ft
Windchill 27 °F
Dew Point 14 °F
Humidity 56%
Rainfall 0.04 in
Snow Depth Not available.
6:56 AM 5:33 PM
Waxing Crescent, 17% visible
METAR KSTL 120451Z 12004KT 10SM OVC075 M02/M11 A3027 RMK AO2 SLP264 T10171106

10-Day Weather Forecast

Almanac

Astronomy

Feb. 11, 2016 Rise Set
Actual Time
Civil Twilight
Nautical Twilight
Astronomical Twilight
Moon
Length of Visible Light
Length of Day
Tomorrow will be .
, % of the Moon is Illuminated

Today's Extremes

State Highs State Lows

Community

WunderPhotos

Upload Photos

1,892,268 photos uploaded!

WunderBlog® & News

Nearby

Air Quality

  Air Quality AQ Index Pollutant
Not available.

Snow Depth

Station Depth Elevation

Earthquake Activity

City Distance Mag. Time & Date
Minimum magnitude displayed is 2.5.

Coastal Water Temperatures

Place Temperature

Stations

Nearby Weather Stations

Station Location Temp. Windchill Dew Point Humidity Wind Precip. Elev Updated Type
                   

Watches & Warnings

There are currently no watches in effect.